Time,TemperatureF,DewpointF,PressureIn,WindDirection,WindDirectionDegrees,WindSpeedMPH,WindSpeedGustMPH,Humidity,HourlyPrecipIn,Conditions,Clouds,dailyrainin,SoftwareType,DateUTC
2013-08-14 00:02:00,55.7,49.0,30.07,NW,315,0.0,-999.0,79,-99.99,,,0.00,weatherlink.com 1.10,2013-08-14 04:02:00,
2013-08-14 00:17:00,55.3,49.0,30.08,NW,313,0.0,-999.0,80,-99.99,,,0.00,weatherlink.com 1.10,2013-08-14 04:17:00,
2013-08-14 00:32:00,55.0,49.0,30.08,NW,313,0.0,-999.0,81,-99.99,,,0.00,weatherlink.com 1.10,2013-08-14 04:32:00,
2013-08-14 00:47:00,54.6,49.0,30.08,NW,314,0.0,-999.0,82,-99.99,,,0.00,weatherlink.com 1.10,2013-08-14 04:47:00,
2013-08-14 01:02:00,54.3,49.0,30.08,NW,310,0.0,-999.0,83,-99.99,,,0.00,weatherlink.com 1.10,2013-08-14 05:02:00,
2013-08-14 01:18:00,53.9,49.0,30.08,NW,313,0.0,-999.0,83,-99.99,,,0.00,weatherlink.com 1.10,2013-08-14 05:18:00,
2013-08-14 01:33:00,53.3,49.0,30.08,NW,313,0.0,-999.0,85,-99.99,,,0.00,weatherlink.com 1.10,2013-08-14 05:33:00,
2013-08-14 01:48:00,53.0,49.0,30.08,NW,312,0.0,-999.0,85,-99.99,,,0.00,weatherlink.com 1.10,2013-08-14 05:48:00,
2013-08-14 02:03:00,52.8,49.0,30.08,NW,312,0.0,-999.0,86,-99.99,,,0.00,weatherlink.com 1.10,2013-08-14 06:03:00,
2013-08-14 02:18:00,52.6,49.0,30.09,NW,312,0.0,-999.0,86,-99.99,,,0.00,weatherlink.com 1.10,2013-08-14 06:18:00,
2013-08-14 02:33:00,52.2,48.0,30.09,NW,312,0.0,-999.0,86,-99.99,,,0.00,weatherlink.com 1.10,2013-08-14 06:33:00,
2013-08-14 02:48:00,51.9,48.0,30.09,NW,312,0.0,-999.0,87,-99.99,,,0.00,weatherlink.com 1.10,2013-08-14 06:48:00,
2013-08-14 03:03:00,51.3,48.0,30.09,West,279,0.0,-999.0,88,-99.99,,,0.00,weatherlink.com 1.10,2013-08-14 07:03:00,
2013-08-14 03:18:00,51.0,48.0,30.09,West,278,0.0,-999.0,89,-99.99,,,0.00,weatherlink.com 1.10,2013-08-14 07:18:00,
2013-08-14 03:33:00,51.0,48.0,30.09,West,278,0.0,-999.0,89,-99.99,,,0.00,weatherlink.com 1.10,2013-08-14 07:33:00,
2013-08-14 03:49:00,50.8,47.0,30.09,WNW,283,0.0,-999.0,88,-99.99,,,0.00,weatherlink.com 1.10,2013-08-14 07:49:00,
2013-08-14 04:04:00,50.7,47.0,30.10,WNW,284,0.0,-999.0,87,-99.99,,,0.00,weatherlink.com 1.10,2013-08-14 08:04:00,
2013-08-14 04:19:00,50.4,47.0,30.09,WNW,284,0.0,-999.0,87,-99.99,,,0.00,weatherlink.com 1.10,2013-08-14 08:19:00,
2013-08-14 04:34:00,50.3,47.0,30.09,WNW,296,0.0,-999.0,87,-99.99,,,0.00,weatherlink.com 1.10,2013-08-14 08:34:00,
2013-08-14 04:49:00,50.5,47.0,30.10,WNW,296,0.0,-999.0,86,-99.99,,,0.00,weatherlink.com 1.10,2013-08-14 08:49:00,
2013-08-14 05:04:00,50.5,47.0,30.10,WNW,296,0.0,-999.0,86,-99.99,,,0.00,weatherlink.com 1.10,2013-08-14 09:04:00,
2013-08-14 05:19:00,50.1,46.0,30.10,WNW,296,0.0,-999.0,86,-99.99,,,0.00,weatherlink.com 1.10,2013-08-14 09:19:00,
2013-08-14 05:34:00,49.7,46.0,30.11,WNW,296,0.0,-999.0,87,-99.99,,,0.00,weatherlink.com 1.10,2013-08-14 09:34:00,
2013-08-14 05:49:00,49.5,46.0,30.11,WNW,296,0.0,-999.0,86,-99.99,,,0.00,weatherlink.com 1.10,2013-08-14 09:49:00,
2013-08-14 06:04:00,49.6,46.0,30.11,WNW,296,0.0,-999.0,87,-99.99,,,0.00,weatherlink.com 1.10,2013-08-14 10:04:00,
2013-08-14 06:19:00,49.6,46.0,30.11,WNW,296,0.0,-999.0,86,-99.99,,,0.00,weatherlink.com 1.10,2013-08-14 10:19:00,
2013-08-14 06:34:00,49.3,45.0,30.12,WNW,296,0.0,-999.0,86,-99.99,,,0.00,weatherlink.com 1.10,2013-08-14 10:34:00,
2013-08-14 06:50:00,48.7,45.0,30.13,WNW,296,0.0,-999.0,88,-99.99,,,0.00,weatherlink.com 1.10,2013-08-14 10:50:00,
2013-08-14 07:05:00,48.5,45.0,30.14,WNW,296,0.0,-999.0,88,-99.99,,,0.00,weatherlink.com 1.10,2013-08-14 11:05:00,
2013-08-14 07:20:00,48.7,45.0,30.14,WNW,296,0.0,-999.0,88,-99.99,,,0.00,weatherlink.com 1.10,2013-08-14 11:20:00,
2013-08-14 07:35:00,49.0,46.0,30.14,WNW,297,0.0,-999.0,88,-99.99,,,0.00,weatherlink.com 1.10,2013-08-14 11:35:00,
2013-08-14 07:50:00,49.9,46.0,30.15,WNW,296,0.0,-999.0,87,-99.99,,,0.00,weatherlink.com 1.10,2013-08-14 11:50:00,
2013-08-14 08:05:00,50.9,47.0,30.15,WNW,296,0.0,-999.0,86,-99.99,,,0.00,weatherlink.com 1.10,2013-08-14 12:05:00,
2013-08-14 08:20:00,52.0,47.0,30.15,WNW,297,0.0,-999.0,84,-99.99,,,0.00,weatherlink.com 1.10,2013-08-14 12:20:00,
2013-08-14 08:35:00,53.3,48.0,30.16,WNW,297,0.0,-999.0,83,-99.99,,,0.00,weatherlink.com 1.10,2013-08-14 12:35:00,
2013-08-14 08:50:00,54.5,49.0,30.16,NW,306,0.0,-999.0,81,-99.99,,,0.00,weatherlink.com 1.10,2013-08-14 12:50:00,
2013-08-14 09:05:00,55.9,50.0,30.17,NW,308,0.0,-999.0,79,-99.99,,,0.00,weatherlink.com 1.10,2013-08-14 13:05:00,
2013-08-14 09:21:00,57.0,50.0,30.17,NW,324,0.0,-999.0,78,-99.99,,,0.00,weatherlink.com 1.10,2013-08-14 13:21:00,
2013-08-14 09:36:00,58.9,51.0,30.17,NW,310,0.0,-999.0,74,-99.99,,,0.00,weatherlink.com 1.10,2013-08-14 13:36:00,
2013-08-14 09:51:00,59.7,51.0,30.17,NNW,336,0.0,-999.0,74,-99.99,,,0.00,weatherlink.com 1.10,2013-08-14 13:51:00,
2013-08-14 10:06:00,60.2,50.0,30.17,NE,51,0.0,-999.0,70,-99.99,,,0.00,weatherlink.com 1.10,2013-08-14 14:06:00,
2013-08-14 10:21:00,61.2,52.0,30.17,NE,44,0.0,-999.0,71,-99.99,,,0.00,weatherlink.com 1.10,2013-08-14 14:21:00,
2013-08-14 10:36:00,61.8,51.0,30.17,NNW,335,0.0,-999.0,67,-99.99,,,0.00,weatherlink.com 1.10,2013-08-14 14:36:00,
2013-08-14 10:51:00,62.2,50.0,30.17,NNW,348,0.0,-999.0,64,-99.99,,,0.00,weatherlink.com 1.10,2013-08-14 14:51:00,
2013-08-14 11:06:00,63.1,49.0,30.17,East,80,0.0,-999.0,60,-99.99,,,0.00,weatherlink.com 1.10,2013-08-14 15:06:00,
2013-08-14 11:21:00,64.2,50.0,30.17,NNW,348,0.0,-999.0,61,-99.99,,,0.00,weatherlink.com 1.10,2013-08-14 15:21:00,
2013-08-14 11:36:00,63.7,49.0,30.17,NNW,330,0.0,-999.0,59,-99.99,,,0.00,weatherlink.com 1.10,2013-08-14 15:36:00,
2013-08-14 12:07:00,63.7,48.0,30.18,NNW,331,0.0,-999.0,57,-99.99,,,0.00,weatherlink.com 1.10,2013-08-14 16:07:00,
2013-08-14 12:22:00,64.5,48.0,30.17,NW,311,8.0,-999.0,55,-99.99,,,0.00,weatherlink.com 1.10,2013-08-14 16:22:00,
2013-08-14 12:37:00,64.7,49.0,30.17,NW,312,0.0,-999.0,57,-99.99,,,0.00,weatherlink.com 1.10,2013-08-14 16:37:00,
2013-08-14 13:07:00,65.7,47.0,30.16,WNW,285,5.0,-999.0,51,-99.99,,,0.00,weatherlink.com 1.10,2013-08-14 17:07:00,
2013-08-14 13:22:00,66.1,50.0,30.16,North,355,0.0,-999.0,57,-99.99,,,0.00,weatherlink.com 1.10,2013-08-14 17:22:00,
2013-08-14 13:37:00,67.1,48.0,30.16,NW,311,0.0,-999.0,50,-99.99,,,0.00,weatherlink.com 1.10,2013-08-14 17:37:00,
2013-08-14 14:07:00,67.1,48.0,30.15,WNW,292,5.0,-999.0,50,-99.99,,,0.00,weatherlink.com 1.10,2013-08-14 18:07:00,
2013-08-14 14:22:00,67.7,49.0,30.15,ENE,67,0.0,-999.0,52,-99.99,,,0.00,weatherlink.com 1.10,2013-08-14 18:22:00,
2013-08-14 14:38:00,67.7,48.0,30.15,NW,320,0.0,-999.0,49,-99.99,,,0.00,weatherlink.com 1.10,2013-08-14 18:38:00,
2013-08-14 15:08:00,68.4,48.0,30.14,NNW,336,0.0,-999.0,49,-99.99,,,0.00,weatherlink.com 1.10,2013-08-14 19:08:00,
2013-08-14 15:23:00,67.5,48.0,30.14,NW,323,0.0,-999.0,49,-99.99,,,0.00,weatherlink.com 1.10,2013-08-14 19:23:00,
2013-08-14 15:38:00,68.3,49.0,30.14,North,5,0.0,-999.0,50,-99.99,,,0.00,weatherlink.com 1.10,2013-08-14 19:38:00,
2013-08-14 15:53:00,69.1,48.0,30.14,NNE,33,0.0,-999.0,48,-99.99,,,0.00,weatherlink.com 1.10,2013-08-14 19:53:00,
2013-08-14 16:08:00,69.8,50.0,30.14,NNW,345,0.0,-999.0,50,-99.99,,,0.00,weatherlink.com 1.10,2013-08-14 20:08:00,
2013-08-14 16:53:00,68.1,49.0,30.13,NW,313,0.0,-999.0,50,-99.99,,,0.00,weatherlink.com 1.10,2013-08-14 20:53:00,
2013-08-14 17:08:00,69.9,50.0,30.13,NW,306,0.0,-999.0,49,-99.99,,,0.00,weatherlink.com 1.10,2013-08-14 21:08:00,
2013-08-14 17:23:00,69.7,49.0,30.14,WNW,294,0.0,-999.0,48,-99.99,,,0.00,weatherlink.com 1.10,2013-08-14 21:23:00,
2013-08-14 17:39:00,70.3,51.0,30.13,NW,304,0.0,-999.0,50,-99.99,,,0.00,weatherlink.com 1.10,2013-08-14 21:39:00,
2013-08-14 17:54:00,71.5,51.0,30.13,West,264,0.0,-999.0,48,-99.99,,,0.00,weatherlink.com 1.10,2013-08-14 21:54:00,
2013-08-14 18:09:00,70.9,50.0,30.13,NW,317,1.0,-999.0,47,-99.99,,,0.00,weatherlink.com 1.10,2013-08-14 22:09:00,
2013-08-14 18:24:00,71.0,50.0,30.12,WNW,303,1.0,-999.0,47,-99.99,,,0.00,weatherlink.com 1.10,2013-08-14 22:24:00,
2013-08-14 18:39:00,70.4,50.0,30.12,WNW,290,0.0,-999.0,48,-99.99,,,0.00,weatherlink.com 1.10,2013-08-14 22:39:00,
2013-08-14 18:54:00,68.8,49.0,30.12,West,267,8.0,-999.0,50,-99.99,,,0.00,weatherlink.com 1.10,2013-08-14 22:54:00,
2013-08-14 19:09:00,67.4,50.0,30.12,WNW,299,0.0,-999.0,54,-99.99,,,0.00,weatherlink.com 1.10,2013-08-14 23:09:00,
2013-08-14 19:24:00,67.8,50.0,30.11,WNW,292,0.0,-999.0,53,-99.99,,,0.00,weatherlink.com 1.10,2013-08-14 23:24:00,
2013-08-14 19:39:00,67.2,50.0,30.11,West,281,0.0,-999.0,54,-99.99,,,0.00,weatherlink.com 1.10,2013-08-14 23:39:00,
2013-08-14 19:54:00,66.4,51.0,30.12,WSW,252,0.0,-999.0,58,-99.99,,,0.00,weatherlink.com 1.10,2013-08-14 23:54:00,
2013-08-14 20:09:00,65.4,51.0,30.12,WNW,301,0.0,-999.0,60,-99.99,,,0.00,weatherlink.com 1.10,2013-08-15 00:09:00,
2013-08-14 20:24:00,64.7,51.0,30.12,WNW,288,1.0,-999.0,61,-99.99,,,0.00,weatherlink.com 1.10,2013-08-15 00:24:00,
2013-08-14 20:39:00,63.5,50.0,30.13,WNW,298,5.0,-999.0,62,-99.99,,,0.00,weatherlink.com 1.10,2013-08-15 00:39:00,
2013-08-14 20:55:00,62.5,50.0,30.13,WNW,297,0.0,-999.0,65,-99.99,,,0.00,weatherlink.com 1.10,2013-08-15 00:55:00,
2013-08-14 21:10:00,61.6,50.0,30.13,NW,304,0.0,-999.0,66,-99.99,,,0.00,weatherlink.com 1.10,2013-08-15 01:10:00,
2013-08-14 21:25:00,61.3,50.0,30.13,NW,304,0.0,-999.0,67,-99.99,,,0.00,weatherlink.com 1.10,2013-08-15 01:25:00,
2013-08-14 21:40:00,60.6,50.0,30.14,WNW,303,0.0,-999.0,68,-99.99,,,0.00,weatherlink.com 1.10,2013-08-15 01:40:00,
2013-08-14 21:55:00,60.2,50.0,30.14,WNW,303,0.0,-999.0,69,-99.99,,,0.00,weatherlink.com 1.10,2013-08-15 01:55:00,
2013-08-14 22:10:00,59.5,50.0,30.14,WNW,303,0.0,-999.0,71,-99.99,,,0.00,weatherlink.com 1.10,2013-08-15 02:10:00,
2013-08-14 22:25:00,58.7,50.0,30.14,NW,304,0.0,-999.0,73,-99.99,,,0.00,weatherlink.com 1.10,2013-08-15 02:25:00,
2013-08-14 22:40:00,58.2,50.0,30.14,WNW,303,0.0,-999.0,74,-99.99,,,0.00,weatherlink.com 1.10,2013-08-15 02:40:00,
2013-08-14 22:55:00,57.7,50.0,30.14,WNW,303,0.0,-999.0,75,-99.99,,,0.00,weatherlink.com 1.10,2013-08-15 02:55:00,
2013-08-14 23:10:00,57.4,50.0,30.14,WNW,303,0.0,-999.0,75,-99.99,,,0.00,weatherlink.com 1.10,2013-08-15 03:10:00,
2013-08-14 23:25:00,57.1,50.0,30.14,NW,304,0.0,-999.0,76,-99.99,,,0.00,weatherlink.com 1.10,2013-08-15 03:25:00,
2013-08-14 23:40:00,56.6,50.0,30.14,NW,304,0.0,-999.0,78,-99.99,,,0.00,weatherlink.com 1.10,2013-08-15 03:40:00,
2013-08-14 23:55:00,56.2,50.0,30.14,NW,304,0.0,-999.0,79,-99.99,,,0.00,weatherlink.com 1.10,2013-08-15 03:55:00,